sensor_id;sensor_type;location;lat;lon;timestamp;P1;durP1;ratioP1;P2;durP2;ratioP2
1360;SDS011;674;45.552;-122.600;2022-12-29T00:00:09;5.60;;;2.50;;
1360;SDS011;674;45.552;-122.600;2022-12-29T00:02:38;4.03;;;1.93;;
1360;SDS011;674;45.552;-122.600;2022-12-29T00:05:07;5.13;;;1.70;;
1360;SDS011;674;45.552;-122.600;2022-12-29T00:07:36;5.10;;;2.30;;
1360;SDS011;674;45.552;-122.600;2022-12-29T00:10:04;6.03;;;2.83;;
1360;SDS011;674;45.552;-122.600;2022-12-29T00:12:33;3.90;;;2.37;;
1360;SDS011;674;45.552;-122.600;2022-12-29T00:15:20;6.50;;;2.33;;
1360;SDS011;674;45.552;-122.600;2022-12-29T00:18:04;6.07;;;1.90;;
1360;SDS011;674;45.552;-122.600;2022-12-29T00:20:34;4.83;;;1.90;;
1360;SDS011;674;45.552;-122.600;2022-12-29T00:23:22;4.77;;;2.50;;
1360;SDS011;674;45.552;-122.600;2022-12-29T00:26:11;4.87;;;2.20;;
1360;SDS011;674;45.552;-122.600;2022-12-29T00:29:00;6.03;;;4.47;;
1360;SDS011;674;45.552;-122.600;2022-12-29T00:31:47;5.37;;;3.43;;
1360;SDS011;674;45.552;-122.600;2022-12-29T00:34:34;9.00;;;4.10;;
1360;SDS011;674;45.552;-122.600;2022-12-29T00:37:21;7.50;;;3.40;;
1360;SDS011;674;45.552;-122.600;2022-12-29T00:40:09;7.67;;;2.87;;
1360;SDS011;674;45.552;-122.600;2022-12-29T00:42:56;7.63;;;4.57;;
1360;SDS011;674;45.552;-122.600;2022-12-29T00:45:43;10.10;;;5.10;;
1360;SDS011;674;45.552;-122.600;2022-12-29T00:48:12;8.20;;;5.20;;
1360;SDS011;674;45.552;-122.600;2022-12-29T00:50:40;5.97;;;5.10;;
1360;SDS011;674;45.552;-122.600;2022-12-29T00:53:08;8.47;;;6.10;;
1360;SDS011;674;45.552;-122.600;2022-12-29T00:55:37;12.70;;;7.10;;
1360;SDS011;674;45.552;-122.600;2022-12-29T00:58:05;5.40;;;2.87;;
1360;SDS011;674;45.552;-122.600;2022-12-29T01:00:34;7.57;;;3.27;;
1360;SDS011;674;45.552;-122.600;2022-12-29T01:03:02;4.83;;;2.60;;
1360;SDS011;674;45.552;-122.600;2022-12-29T01:05:31;5.47;;;2.43;;
1360;SDS011;674;45.552;-122.600;2022-12-29T01:08:03;5.43;;;3.07;;
1360;SDS011;674;45.552;-122.600;2022-12-29T01:10:32;4.80;;;3.20;;
1360;SDS011;674;45.552;-122.600;2022-12-29T01:13:01;4.20;;;2.57;;
1360;SDS011;674;45.552;-122.600;2022-12-29T01:15:29;7.37;;;2.90;;
1360;SDS011;674;45.552;-122.600;2022-12-29T01:17:57;5.47;;;2.97;;
1360;SDS011;674;45.552;-122.600;2022-12-29T01:20:26;4.70;;;3.00;;
1360;SDS011;674;45.552;-122.600;2022-12-29T01:22:55;9.20;;;3.07;;
1360;SDS011;674;45.552;-122.600;2022-12-29T01:25:24;5.80;;;2.90;;
1360;SDS011;674;45.552;-122.600;2022-12-29T01:27:52;8.10;;;3.63;;
1360;SDS011;674;45.552;-122.600;2022-12-29T01:30:21;6.30;;;2.80;;
1360;SDS011;674;45.552;-122.600;2022-12-29T01:32:49;8.63;;;3.03;;
1360;SDS011;674;45.552;-122.600;2022-12-29T01:35:17;3.93;;;3.10;;
1360;SDS011;674;45.552;-122.600;2022-12-29T01:37:46;7.50;;;3.37;;
1360;SDS011;674;45.552;-122.600;2022-12-29T01:40:14;8.57;;;5.77;;
1360;SDS011;674;45.552;-122.600;2022-12-29T01:42:43;8.00;;;4.30;;
1360;SDS011;674;45.552;-122.600;2022-12-29T01:45:12;5.97;;;3.03;;
1360;SDS011;674;45.552;-122.600;2022-12-29T01:47:44;6.53;;;3.23;;
1360;SDS011;674;45.552;-122.600;2022-12-29T01:52:51;3.33;;;2.33;;
1360;SDS011;674;45.552;-122.600;2022-12-29T01:55:34;7.03;;;2.43;;
1360;SDS011;674;45.552;-122.600;2022-12-29T01:58:26;8.23;;;2.77;;
1360;SDS011;674;45.552;-122.600;2022-12-29T02:00:58;6.30;;;2.50;;
1360;SDS011;674;45.552;-122.600;2022-12-29T02:03:27;4.30;;;2.70;;
1360;SDS011;674;45.552;-122.600;2022-12-29T02:06:04;6.47;;;2.50;;
1360;SDS011;674;45.552;-122.600;2022-12-29T02:09:04;5.50;;;2.90;;
1360;SDS011;674;45.552;-122.600;2022-12-29T02:11:32;4.27;;;2.23;;
1360;SDS011;674;45.552;-122.600;2022-12-29T02:14:10;6.30;;;2.40;;
1360;SDS011;674;45.552;-122.600;2022-12-29T02:16:50;5.53;;;2.40;;
1360;SDS011;674;45.552;-122.600;2022-12-29T02:19:53;5.47;;;3.00;;
1360;SDS011;674;45.552;-122.600;2022-12-29T02:31:52;3.60;;;2.50;;
1360;SDS011;674;45.552;-122.600;2022-12-29T02:34:20;4.20;;;1.93;;
1360;SDS011;674;45.552;-122.600;2022-12-29T02:40:09;5.47;;;3.10;;
1360;SDS011;674;45.552;-122.600;2022-12-29T02:42:50;4.80;;;2.30;;
1360;SDS011;674;45.552;-122.600;2022-12-29T02:45:41;5.40;;;2.80;;
1360;SDS011;674;45.552;-122.600;2022-12-29T02:48:37;5.10;;;2.90;;
1360;SDS011;674;45.552;-122.600;2022-12-29T02:51:18;6.40;;;2.70;;
1360;SDS011;674;45.552;-122.600;2022-12-29T02:53:53;10.30;;;3.20;;
1360;SDS011;674;45.552;-122.600;2022-12-29T02:56:42;7.33;;;3.00;;
1360;SDS011;674;45.552;-122.600;2022-12-29T02:59:10;6.20;;;3.10;;
1360;SDS011;674;45.552;-122.600;2022-12-29T03:05:05;7.33;;;3.00;;
1360;SDS011;674;45.552;-122.600;2022-12-29T03:11:10;5.67;;;3.60;;
1360;SDS011;674;45.552;-122.600;2022-12-29T03:14:07;4.40;;;2.77;;
1360;SDS011;674;45.552;-122.600;2022-12-29T03:17:19;4.60;;;2.73;;
1360;SDS011;674;45.552;-122.600;2022-12-29T03:19:54;5.60;;;2.80;;
1360;SDS011;674;45.552;-122.600;2022-12-29T03:22:31;4.50;;;2.70;;
1360;SDS011;674;45.552;-122.600;2022-12-29T03:27:48;4.03;;;2.07;;
1360;SDS011;674;45.552;-122.600;2022-12-29T03:30:22;6.03;;;1.80;;
1360;SDS011;674;45.552;-122.600;2022-12-29T03:32:57;4.37;;;2.13;;
1360;SDS011;674;45.552;-122.600;2022-12-29T03:35:30;4.10;;;2.40;;
1360;SDS011;674;45.552;-122.600;2022-12-29T03:40:39;4.03;;;1.93;;
1360;SDS011;674;45.552;-122.600;2022-12-29T03:43:17;3.87;;;2.60;;
1360;SDS011;674;45.552;-122.600;2022-12-29T03:45:46;4.80;;;2.30;;
1360;SDS011;674;45.552;-122.600;2022-12-29T03:48:14;4.20;;;2.57;;
1360;SDS011;674;45.552;-122.600;2022-12-29T03:50:43;6.00;;;3.27;;
1360;SDS011;674;45.552;-122.600;2022-12-29T03:53:12;6.20;;;2.90;;
1360;SDS011;674;45.552;-122.600;2022-12-29T03:55:40;5.63;;;2.80;;
1360;SDS011;674;45.552;-122.600;2022-12-29T03:58:08;4.70;;;3.10;;
1360;SDS011;674;45.552;-122.600;2022-12-29T04:00:37;6.37;;;3.50;;
1360;SDS011;674;45.552;-122.600;2022-12-29T04:03:05;5.40;;;3.57;;
1360;SDS011;674;45.552;-122.600;2022-12-29T04:05:34;6.03;;;3.37;;
1360;SDS011;674;45.552;-122.600;2022-12-29T04:08:02;7.50;;;4.10;;
1360;SDS011;674;45.552;-122.600;2022-12-29T04:10:31;5.97;;;3.70;;
1360;SDS011;674;45.552;-122.600;2022-12-29T04:12:59;7.47;;;5.40;;
1360;SDS011;674;45.552;-122.600;2022-12-29T04:15:28;6.77;;;4.80;;
1360;SDS011;674;45.552;-122.600;2022-12-29T04:17:56;7.17;;;4.83;;
1360;SDS011;674;45.552;-122.600;2022-12-29T04:20:25;8.43;;;5.50;;
1360;SDS011;674;45.552;-122.600;2022-12-29T04:23:12;13.00;;;5.40;;
1360;SDS011;674;45.552;-122.600;2022-12-29T04:25:40;7.00;;;5.10;;
1360;SDS011;674;45.552;-122.600;2022-12-29T04:28:12;9.40;;;5.60;;
1360;SDS011;674;45.552;-122.600;2022-12-29T04:30:44;7.30;;;5.27;;
1360;SDS011;674;45.552;-122.600;2022-12-29T04:33:13;8.73;;;5.60;;
1360;SDS011;674;45.552;-122.600;2022-12-29T04:35:44;7.93;;;5.60;;
1360;SDS011;674;45.552;-122.600;2022-12-29T04:38:13;8.10;;;6.50;;
1360;SDS011;674;45.552;-122.600;2022-12-29T04:40:44;8.77;;;6.67;;
1360;SDS011;674;45.552;-122.600;2022-12-29T04:43:12;9.10;;;6.90;;
1360;SDS011;674;45.552;-122.600;2022-12-29T04:45:46;7.50;;;6.60;;
1360;SDS011;674;45.552;-122.600;2022-12-29T04:48:15;9.70;;;6.70;;
1360;SDS011;674;45.552;-122.600;2022-12-29T04:50:43;10.93;;;7.60;;
1360;SDS011;674;45.552;-122.600;2022-12-29T04:53:15;9.87;;;7.30;;
1360;SDS011;674;45.552;-122.600;2022-12-29T04:55:44;8.07;;;6.57;;
1360;SDS011;674;45.552;-122.600;2022-12-29T04:58:15;9.00;;;6.40;;
1360;SDS011;674;45.552;-122.600;2022-12-29T05:00:48;8.90;;;5.93;;
1360;SDS011;674;45.552;-122.600;2022-12-29T05:03:18;9.50;;;7.00;;
1360;SDS011;674;45.552;-122.600;2022-12-29T05:05:47;8.57;;;6.00;;
1360;SDS011;674;45.552;-122.600;2022-12-29T05:08:15;7.73;;;5.10;;
1360;SDS011;674;45.552;-122.600;2022-12-29T05:10:51;8.83;;;6.30;;
1360;SDS011;674;45.552;-122.600;2022-12-29T05:13:20;9.70;;;6.63;;
1360;SDS011;674;45.552;-122.600;2022-12-29T05:15:51;10.33;;;6.00;;
1360;SDS011;674;45.552;-122.600;2022-12-29T05:18:21;9.10;;;7.50;;
1360;SDS011;674;45.552;-122.600;2022-12-29T05:20:49;10.07;;;7.73;;
1360;SDS011;674;45.552;-122.600;2022-12-29T05:23:18;10.13;;;7.00;;
1360;SDS011;674;45.552;-122.600;2022-12-29T05:25:46;7.33;;;6.37;;
1360;SDS011;674;45.552;-122.600;2022-12-29T05:28:15;6.73;;;5.77;;
1360;SDS011;674;45.552;-122.600;2022-12-29T05:30:44;9.77;;;7.97;;
1360;SDS011;674;45.552;-122.600;2022-12-29T05:33:15;8.90;;;7.43;;
1360;SDS011;674;45.552;-122.600;2022-12-29T05:35:44;8.23;;;5.80;;
1360;SDS011;674;45.552;-122.600;2022-12-29T05:38:13;7.47;;;5.50;;
1360;SDS011;674;45.552;-122.600;2022-12-29T05:40:44;7.93;;;5.30;;
1360;SDS011;674;45.552;-122.600;2022-12-29T05:43:12;6.13;;;4.20;;
1360;SDS011;674;45.552;-122.600;2022-12-29T05:45:41;5.07;;;3.50;;
1360;SDS011;674;45.552;-122.600;2022-12-29T05:48:09;5.47;;;3.53;;
1360;SDS011;674;45.552;-122.600;2022-12-29T05:50:37;4.30;;;3.27;;
1360;SDS011;674;45.552;-122.600;2022-12-29T05:53:06;6.63;;;4.70;;
1360;SDS011;674;45.552;-122.600;2022-12-29T05:55:34;6.40;;;4.70;;
1360;SDS011;674;45.552;-122.600;2022-12-29T05:58:06;5.10;;;3.60;;
1360;SDS011;674;45.552;-122.600;2022-12-29T06:00:34;5.93;;;4.37;;
1360;SDS011;674;45.552;-122.600;2022-12-29T06:03:03;5.73;;;4.00;;
1360;SDS011;674;45.552;-122.600;2022-12-29T06:05:32;8.70;;;4.47;;
1360;SDS011;674;45.552;-122.600;2022-12-29T06:08:01;6.00;;;3.40;;
1360;SDS011;674;45.552;-122.600;2022-12-29T06:10:29;6.10;;;3.10;;
1360;SDS011;674;45.552;-122.600;2022-12-29T06:12:58;4.80;;;3.33;;
1360;SDS011;674;45.552;-122.600;2022-12-29T06:15:26;4.73;;;3.50;;
1360;SDS011;674;45.552;-122.600;2022-12-29T06:17:55;4.20;;;3.03;;
1360;SDS011;674;45.552;-122.600;2022-12-29T06:20:23;3.90;;;2.57;;
1360;SDS011;674;45.552;-122.600;2022-12-29T06:22:52;3.83;;;2.27;;
1360;SDS011;674;45.552;-122.600;2022-12-29T06:25:20;3.63;;;2.10;;
1360;SDS011;674;45.552;-122.600;2022-12-29T06:27:49;3.10;;;2.07;;
1360;SDS011;674;45.552;-122.600;2022-12-29T06:30:17;3.73;;;2.03;;
1360;SDS011;674;45.552;-122.600;2022-12-29T06:32:45;4.77;;;2.40;;
1360;SDS011;674;45.552;-122.600;2022-12-29T06:35:14;3.50;;;2.00;;
1360;SDS011;674;45.552;-122.600;2022-12-29T06:37:43;3.77;;;2.00;;
1360;SDS011;674;45.552;-122.600;2022-12-29T06:40:11;4.47;;;2.60;;
1360;SDS011;674;45.552;-122.600;2022-12-29T06:42:40;4.43;;;2.30;;
1360;SDS011;674;45.552;-122.600;2022-12-29T06:45:08;2.93;;;1.83;;
1360;SDS011;674;45.552;-122.600;2022-12-29T06:47:37;3.60;;;2.10;;
1360;SDS011;674;45.552;-122.600;2022-12-29T06:50:06;3.90;;;2.27;;
1360;SDS011;674;45.552;-122.600;2022-12-29T06:52:34;3.07;;;1.90;;
1360;SDS011;674;45.552;-122.600;2022-12-29T06:55:03;3.33;;;1.97;;
1360;SDS011;674;45.552;-122.600;2022-12-29T06:57:32;3.80;;;1.93;;
1360;SDS011;674;45.552;-122.600;2022-12-29T07:00:02;3.77;;;1.33;;
1360;SDS011;674;45.552;-122.600;2022-12-29T07:02:32;2.53;;;1.40;;
1360;SDS011;674;45.552;-122.600;2022-12-29T07:05:01;3.47;;;2.17;;
1360;SDS011;674;45.552;-122.600;2022-12-29T07:07:29;2.40;;;1.50;;
1360;SDS011;674;45.552;-122.600;2022-12-29T07:09:58;4.07;;;1.60;;
1360;SDS011;674;45.552;-122.600;2022-12-29T07:12:26;2.40;;;1.40;;
1360;SDS011;674;45.552;-122.600;2022-12-29T07:14:54;2.60;;;1.20;;
1360;SDS011;674;45.552;-122.600;2022-12-29T07:17:23;4.00;;;1.63;;
1360;SDS011;674;45.552;-122.600;2022-12-29T07:19:51;3.20;;;2.00;;
1360;SDS011;674;45.552;-122.600;2022-12-29T07:22:20;3.27;;;1.40;;
1360;SDS011;674;45.552;-122.600;2022-12-29T07:24:48;2.80;;;1.27;;
1360;SDS011;674;45.552;-122.600;2022-12-29T07:27:17;2.27;;;1.27;;
1360;SDS011;674;45.552;-122.600;2022-12-29T07:29:45;3.40;;;1.17;;
1360;SDS011;674;45.552;-122.600;2022-12-29T07:32:14;2.97;;;1.40;;
1360;SDS011;674;45.552;-122.600;2022-12-29T07:34:42;2.60;;;1.50;;
1360;SDS011;674;45.552;-122.600;2022-12-29T07:37:12;5.37;;;1.80;;
1360;SDS011;674;45.552;-122.600;2022-12-29T07:39:44;2.57;;;1.40;;
1360;SDS011;674;45.552;-122.600;2022-12-29T07:42:12;3.03;;;1.30;;
1360;SDS011;674;45.552;-122.600;2022-12-29T07:44:41;4.37;;;1.90;;
1360;SDS011;674;45.552;-122.600;2022-12-29T07:47:09;3.37;;;2.10;;
1360;SDS011;674;45.552;-122.600;2022-12-29T07:49:38;5.87;;;1.77;;
1360;SDS011;674;45.552;-122.600;2022-12-29T07:52:06;2.93;;;1.40;;
1360;SDS011;674;45.552;-122.600;2022-12-29T07:54:35;3.17;;;2.00;;
1360;SDS011;674;45.552;-122.600;2022-12-29T07:57:04;2.80;;;1.80;;
1360;SDS011;674;45.552;-122.600;2022-12-29T07:59:33;3.17;;;2.17;;
1360;SDS011;674;45.552;-122.600;2022-12-29T08:02:01;2.33;;;1.27;;
1360;SDS011;674;45.552;-122.600;2022-12-29T08:04:30;3.50;;;1.53;;
1360;SDS011;674;45.552;-122.600;2022-12-29T08:06:58;2.73;;;1.40;;
1360;SDS011;674;45.552;-122.600;2022-12-29T08:09:27;2.93;;;1.40;;
1360;SDS011;674;45.552;-122.600;2022-12-29T08:11:55;3.03;;;1.60;;
1360;SDS011;674;45.552;-122.600;2022-12-29T08:14:24;3.53;;;2.07;;
1360;SDS011;674;45.552;-122.600;2022-12-29T08:16:52;3.43;;;2.17;;
1360;SDS011;674;45.552;-122.600;2022-12-29T08:19:20;2.40;;;1.30;;
1360;SDS011;674;45.552;-122.600;2022-12-29T08:21:49;3.60;;;1.50;;
1360;SDS011;674;45.552;-122.600;2022-12-29T08:24:18;2.37;;;1.20;;
1360;SDS011;674;45.552;-122.600;2022-12-29T08:26:46;2.47;;;1.43;;
1360;SDS011;674;45.552;-122.600;2022-12-29T08:29:15;2.40;;;1.20;;
1360;SDS011;674;45.552;-122.600;2022-12-29T08:31:44;2.73;;;1.10;;
1360;SDS011;674;45.552;-122.600;2022-12-29T08:34:12;2.60;;;1.27;;
1360;SDS011;674;45.552;-122.600;2022-12-29T08:36:41;2.60;;;1.43;;
1360;SDS011;674;45.552;-122.600;2022-12-29T08:39:09;2.57;;;1.20;;
1360;SDS011;674;45.552;-122.600;2022-12-29T08:41:38;2.87;;;1.30;;
1360;SDS011;674;45.552;-122.600;2022-12-29T08:44:06;1.80;;;0.90;;
1360;SDS011;674;45.552;-122.600;2022-12-29T08:46:35;2.63;;;1.00;;
1360;SDS011;674;45.552;-122.600;2022-12-29T08:49:04;2.13;;;1.10;;
1360;SDS011;674;45.552;-122.600;2022-12-29T08:51:32;2.13;;;0.93;;
1360;SDS011;674;45.552;-122.600;2022-12-29T08:54:01;2.10;;;0.90;;
1360;SDS011;674;45.552;-122.600;2022-12-29T08:56:29;1.80;;;0.83;;
1360;SDS011;674;45.552;-122.600;2022-12-29T08:58:57;2.10;;;1.00;;
1360;SDS011;674;45.552;-122.600;2022-12-29T09:01:26;3.03;;;1.60;;
1360;SDS011;674;45.552;-122.600;2022-12-29T09:03:54;3.17;;;2.20;;
1360;SDS011;674;45.552;-122.600;2022-12-29T09:06:42;5.10;;;3.03;;
1360;SDS011;674;45.552;-122.600;2022-12-29T09:09:12;7.00;;;5.20;;
1360;SDS011;674;45.552;-122.600;2022-12-29T09:11:40;2.80;;;1.67;;
1360;SDS011;674;45.552;-122.600;2022-12-29T09:14:09;2.13;;;1.43;;
1360;SDS011;674;45.552;-122.600;2022-12-29T09:16:39;1.90;;;0.97;;
1360;SDS011;674;45.552;-122.600;2022-12-29T09:19:26;1.80;;;1.00;;
1360;SDS011;674;45.552;-122.600;2022-12-29T09:21:54;2.07;;;1.10;;
1360;SDS011;674;45.552;-122.600;2022-12-29T09:24:23;2.00;;;0.73;;
1360;SDS011;674;45.552;-122.600;2022-12-29T09:26:51;1.70;;;0.83;;
1360;SDS011;674;45.552;-122.600;2022-12-29T09:29:20;1.70;;;0.70;;
1360;SDS011;674;45.552;-122.600;2022-12-29T09:31:49;2.10;;;1.10;;
1360;SDS011;674;45.552;-122.600;2022-12-29T09:34:17;2.43;;;1.20;;
1360;SDS011;674;45.552;-122.600;2022-12-29T09:36:46;1.70;;;1.00;;
1360;SDS011;674;45.552;-122.600;2022-12-29T09:39:14;2.40;;;1.00;;
1360;SDS011;674;45.552;-122.600;2022-12-29T09:41:46;2.33;;;0.93;;
1360;SDS011;674;45.552;-122.600;2022-12-29T09:44:30;2.20;;;0.90;;
1360;SDS011;674;45.552;-122.600;2022-12-29T09:47:09;1.60;;;0.77;;
1360;SDS011;674;45.552;-122.600;2022-12-29T09:52:23;2.37;;;1.07;;
1360;SDS011;674;45.552;-122.600;2022-12-29T09:55:21;1.90;;;1.03;;
1360;SDS011;674;45.552;-122.600;2022-12-29T09:57:57;1.77;;;0.70;;
1360;SDS011;674;45.552;-122.600;2022-12-29T10:03:21;2.33;;;0.90;;
1360;SDS011;674;45.552;-122.600;2022-12-29T10:09:02;1.90;;;0.90;;
1360;SDS011;674;45.552;-122.600;2022-12-29T10:20:04;1.80;;;0.87;;
1360;SDS011;674;45.552;-122.600;2022-12-29T10:25:17;1.67;;;0.60;;
1360;SDS011;674;45.552;-122.600;2022-12-29T10:27:51;3.50;;;0.80;;
1360;SDS011;674;45.552;-122.600;2022-12-29T10:30:24;3.53;;;1.00;;
1360;SDS011;674;45.552;-122.600;2022-12-29T10:32:56;2.70;;;0.80;;
1360;SDS011;674;45.552;-122.600;2022-12-29T10:35:37;2.57;;;0.70;;
1360;SDS011;674;45.552;-122.600;2022-12-29T10:41:13;1.60;;;0.70;;
1360;SDS011;674;45.552;-122.600;2022-12-29T10:43:50;2.13;;;0.70;;
1360;SDS011;674;45.552;-122.600;2022-12-29T10:46:23;2.10;;;0.80;;
1360;SDS011;674;45.552;-122.600;2022-12-29T10:49:02;1.70;;;0.70;;
1360;SDS011;674;45.552;-122.600;2022-12-29T10:51:34;1.60;;;0.60;;
1360;SDS011;674;45.552;-122.600;2022-12-29T10:54:14;1.70;;;0.90;;
1360;SDS011;674;45.552;-122.600;2022-12-29T10:56:56;1.60;;;0.70;;
1360;SDS011;674;45.552;-122.600;2022-12-29T10:59:34;1.50;;;0.70;;
1360;SDS011;674;45.552;-122.600;2022-12-29T11:07:43;1.83;;;0.57;;
1360;SDS011;674;45.552;-122.600;2022-12-29T11:11:00;1.70;;;0.87;;
1360;SDS011;674;45.552;-122.600;2022-12-29T11:13:10;1.60;;;0.70;;
1360;SDS011;674;45.552;-122.600;2022-12-29T11:15:46;2.00;;;0.80;;
1360;SDS011;674;45.552;-122.600;2022-12-29T11:20:52;1.80;;;0.90;;
1360;SDS011;674;45.552;-122.600;2022-12-29T11:23:35;1.70;;;0.70;;
1360;SDS011;674;45.552;-122.600;2022-12-29T11:26:12;2.70;;;1.00;;
1360;SDS011;674;45.552;-122.600;2022-12-29T11:31:56;3.10;;;1.90;;
1360;SDS011;674;45.552;-122.600;2022-12-29T11:34:30;2.70;;;1.30;;
1360;SDS011;674;45.552;-122.600;2022-12-29T11:37:01;3.20;;;2.17;;
1360;SDS011;674;45.552;-122.600;2022-12-29T11:39:34;3.70;;;2.37;;
1360;SDS011;674;45.552;-122.600;2022-12-29T11:42:20;3.20;;;1.50;;
1360;SDS011;674;45.552;-122.600;2022-12-29T11:44:58;5.43;;;2.13;;
1360;SDS011;674;45.552;-122.600;2022-12-29T11:47:52;4.60;;;2.67;;
1360;SDS011;674;45.552;-122.600;2022-12-29T11:50:25;3.87;;;1.90;;
1360;SDS011;674;45.552;-122.600;2022-12-29T11:53:01;3.37;;;1.87;;
1360;SDS011;674;45.552;-122.600;2022-12-29T11:55:55;2.50;;;1.70;;
1360;SDS011;674;45.552;-122.600;2022-12-29T11:58:37;2.90;;;1.90;;
1360;SDS011;674;45.552;-122.600;2022-12-29T12:01:13;2.53;;;1.40;;
1360;SDS011;674;45.552;-122.600;2022-12-29T12:03:59;3.03;;;1.33;;
1360;SDS011;674;45.552;-122.600;2022-12-29T12:06:29;2.47;;;1.10;;
1360;SDS011;674;45.552;-122.600;2022-12-29T12:09:04;2.77;;;1.40;;
1360;SDS011;674;45.552;-122.600;2022-12-29T12:11:38;2.77;;;1.40;;
1360;SDS011;674;45.552;-122.600;2022-12-29T12:17:04;3.00;;;1.13;;
1360;SDS011;674;45.552;-122.600;2022-12-29T12:22:46;2.60;;;1.33;;
1360;SDS011;674;45.552;-122.600;2022-12-29T12:25:30;3.47;;;1.47;;
1360;SDS011;674;45.552;-122.600;2022-12-29T12:30:47;3.70;;;1.50;;
1360;SDS011;674;45.552;-122.600;2022-12-29T12:33:27;2.80;;;1.30;;
1360;SDS011;674;45.552;-122.600;2022-12-29T12:36:26;2.70;;;1.60;;
1360;SDS011;674;45.552;-122.600;2022-12-29T12:39:32;2.60;;;1.40;;
1360;SDS011;674;45.552;-122.600;2022-12-29T12:42:26;3.30;;;1.53;;
1360;SDS011;674;45.552;-122.600;2022-12-29T12:47:35;2.80;;;1.77;;
1360;SDS011;674;45.552;-122.600;2022-12-29T12:59:15;2.20;;;1.17;;
1360;SDS011;674;45.552;-122.600;2022-12-29T13:07:56;2.40;;;1.23;;
1360;SDS011;674;45.552;-122.600;2022-12-29T13:11:08;3.47;;;1.30;;
1360;SDS011;674;45.552;-122.600;2022-12-29T13:32:31;1.80;;;1.00;;
1360;SDS011;674;45.552;-122.600;2022-12-29T13:38:03;3.33;;;1.40;;
1360;SDS011;674;45.552;-122.600;2022-12-29T13:40:34;2.90;;;1.80;;
1360;SDS011;674;45.552;-122.600;2022-12-29T13:43:07;4.97;;;1.97;;
1360;SDS011;674;45.552;-122.600;2022-12-29T13:45:36;2.57;;;1.50;;
1360;SDS011;674;45.552;-122.600;2022-12-29T13:48:09;4.20;;;1.20;;
1360;SDS011;674;45.552;-122.600;2022-12-29T13:50:52;2.10;;;1.30;;
1360;SDS011;674;45.552;-122.600;2022-12-29T13:56:18;2.83;;;1.20;;
1360;SDS011;674;45.552;-122.600;2022-12-29T13:58:56;2.27;;;1.13;;
1360;SDS011;674;45.552;-122.600;2022-12-29T14:04:27;2.40;;;1.20;;
1360;SDS011;674;45.552;-122.600;2022-12-29T14:07:03;2.73;;;1.10;;
1360;SDS011;674;45.552;-122.600;2022-12-29T14:17:40;2.20;;;1.07;;
1360;SDS011;674;45.552;-122.600;2022-12-29T14:20:21;2.97;;;1.07;;
1360;SDS011;674;45.552;-122.600;2022-12-29T14:36:37;3.60;;;1.20;;
1360;SDS011;674;45.552;-122.600;2022-12-29T14:42:15;3.17;;;2.10;;
1360;SDS011;674;45.552;-122.600;2022-12-29T14:50:07;2.53;;;1.60;;
1360;SDS011;674;45.552;-122.600;2022-12-29T14:58:17;2.40;;;1.30;;
1360;SDS011;674;45.552;-122.600;2022-12-29T15:00:53;2.90;;;1.30;;
1360;SDS011;674;45.552;-122.600;2022-12-29T15:05:53;2.70;;;1.70;;
1360;SDS011;674;45.552;-122.600;2022-12-29T15:08:33;3.70;;;2.13;;
1360;SDS011;674;45.552;-122.600;2022-12-29T15:11:23;2.90;;;2.30;;
1360;SDS011;674;45.552;-122.600;2022-12-29T15:13:56;3.03;;;1.60;;
1360;SDS011;674;45.552;-122.600;2022-12-29T15:16:32;4.13;;;2.07;;
1360;SDS011;674;45.552;-122.600;2022-12-29T15:19:03;3.00;;;1.40;;
1360;SDS011;674;45.552;-122.600;2022-12-29T15:21:48;8.03;;;2.00;;
1360;SDS011;674;45.552;-122.600;2022-12-29T15:24:16;4.07;;;2.10;;
1360;SDS011;674;45.552;-122.600;2022-12-29T15:26:46;7.70;;;2.00;;
1360;SDS011;674;45.552;-122.600;2022-12-29T15:32:18;6.00;;;2.10;;
1360;SDS011;674;45.552;-122.600;2022-12-29T15:34:53;5.00;;;2.27;;
1360;SDS011;674;45.552;-122.600;2022-12-29T15:39:53;4.93;;;2.37;;
1360;SDS011;674;45.552;-122.600;2022-12-29T15:42:27;4.17;;;2.27;;
1360;SDS011;674;45.552;-122.600;2022-12-29T15:45:10;2.97;;;1.60;;
1360;SDS011;674;45.552;-122.600;2022-12-29T15:47:41;4.43;;;2.30;;
1360;SDS011;674;45.552;-122.600;2022-12-29T15:50:28;4.07;;;2.30;;
1360;SDS011;674;45.552;-122.600;2022-12-29T15:53:01;3.20;;;1.93;;
1360;SDS011;674;45.552;-122.600;2022-12-29T15:55:38;3.50;;;2.10;;
1360;SDS011;674;45.552;-122.600;2022-12-29T15:58:22;3.40;;;2.00;;
1360;SDS011;674;45.552;-122.600;2022-12-29T16:00:56;2.77;;;1.80;;
1360;SDS011;674;45.552;-122.600;2022-12-29T16:03:29;4.07;;;1.60;;
1360;SDS011;674;45.552;-122.600;2022-12-29T16:06:08;2.50;;;1.63;;
1360;SDS011;674;45.552;-122.600;2022-12-29T16:08:39;3.00;;;1.70;;
1360;SDS011;674;45.552;-122.600;2022-12-29T16:11:18;2.50;;;1.60;;
1360;SDS011;674;45.552;-122.600;2022-12-29T16:13:52;2.20;;;1.27;;
1360;SDS011;674;45.552;-122.600;2022-12-29T16:16:22;2.60;;;1.40;;
1360;SDS011;674;45.552;-122.600;2022-12-29T16:18:59;2.80;;;1.27;;
1360;SDS011;674;45.552;-122.600;2022-12-29T16:21:39;2.70;;;1.20;;
1360;SDS011;674;45.552;-122.600;2022-12-29T16:24:12;2.87;;;1.67;;
1360;SDS011;674;45.552;-122.600;2022-12-29T16:27:06;4.60;;;1.70;;
1360;SDS011;674;45.552;-122.600;2022-12-29T16:29:40;3.90;;;1.13;;
1360;SDS011;674;45.552;-122.600;2022-12-29T16:35:03;3.17;;;1.40;;
1360;SDS011;674;45.552;-122.600;2022-12-29T16:37:48;2.50;;;1.23;;
1360;SDS011;674;45.552;-122.600;2022-12-29T16:40:38;2.27;;;1.20;;
1360;SDS011;674;45.552;-122.600;2022-12-29T16:43:33;3.10;;;1.10;;
1360;SDS011;674;45.552;-122.600;2022-12-29T16:46:16;3.10;;;1.40;;
1360;SDS011;674;45.552;-122.600;2022-12-29T16:48:56;2.80;;;1.60;;
1360;SDS011;674;45.552;-122.600;2022-12-29T16:51:28;2.80;;;1.43;;
1360;SDS011;674;45.552;-122.600;2022-12-29T16:54:02;2.40;;;1.40;;
1360;SDS011;674;45.552;-122.600;2022-12-29T16:56:33;2.70;;;1.47;;
1360;SDS011;674;45.552;-122.600;2022-12-29T16:59:07;10.63;;;8.57;;
1360;SDS011;674;45.552;-122.600;2022-12-29T17:01:51;19.10;;;12.90;;
1360;SDS011;674;45.552;-122.600;2022-12-29T17:04:20;14.03;;;10.07;;
1360;SDS011;674;45.552;-122.600;2022-12-29T17:06:48;17.53;;;15.50;;
1360;SDS011;674;45.552;-122.600;2022-12-29T17:11:50;2.63;;;1.60;;
1360;SDS011;674;45.552;-122.600;2022-12-29T17:14:46;4.77;;;2.87;;
1360;SDS011;674;45.552;-122.600;2022-12-29T17:19:57;3.53;;;2.00;;
1360;SDS011;674;45.552;-122.600;2022-12-29T17:22:41;3.00;;;1.50;;
1360;SDS011;674;45.552;-122.600;2022-12-29T17:25:14;3.90;;;2.50;;
1360;SDS011;674;45.552;-122.600;2022-12-29T17:27:46;3.20;;;1.63;;
1360;SDS011;674;45.552;-122.600;2022-12-29T17:30:22;9.97;;;7.40;;
1360;SDS011;674;45.552;-122.600;2022-12-29T17:33:03;10.27;;;5.97;;
1360;SDS011;674;45.552;-122.600;2022-12-29T17:35:37;3.83;;;2.72;;
1360;SDS011;674;45.552;-122.600;2022-12-29T17:41:01;8.83;;;7.43;;
1360;SDS011;674;45.552;-122.600;2022-12-29T17:43:30;7.90;;;4.60;;
1360;SDS011;674;45.552;-122.600;2022-12-29T17:46:02;9.40;;;5.33;;
1360;SDS011;674;45.552;-122.600;2022-12-29T17:48:34;8.10;;;5.00;;
1360;SDS011;674;45.552;-122.600;2022-12-29T17:51:03;5.20;;;2.60;;
1360;SDS011;674;45.552;-122.600;2022-12-29T17:53:31;5.93;;;4.83;;
1360;SDS011;674;45.552;-122.600;2022-12-29T17:56:00;10.03;;;7.73;;
1360;SDS011;674;45.552;-122.600;2022-12-29T17:58:28;5.20;;;2.90;;
1360;SDS011;674;45.552;-122.600;2022-12-29T18:00:59;5.77;;;3.50;;
1360;SDS011;674;45.552;-122.600;2022-12-29T18:03:30;3.73;;;2.33;;
1360;SDS011;674;45.552;-122.600;2022-12-29T18:06:04;21.57;;;16.83;;
1360;SDS011;674;45.552;-122.600;2022-12-29T18:08:35;12.23;;;7.53;;
1360;SDS011;674;45.552;-122.600;2022-12-29T18:11:05;4.93;;;2.37;;
1360;SDS011;674;45.552;-122.600;2022-12-29T18:13:51;18.30;;;12.50;;
1360;SDS011;674;45.552;-122.600;2022-12-29T18:16:21;24.90;;;15.33;;